Atlantic City Int. Airport (ACY)

 

Airport Diagram
Current Weather/Forecast (VFR Conditions)
METAR KACY 080054Z AUTO 17008KT 10SM FEW010 26/23 A3004 RMK AO2 SLP172 T02610228 TSNO
TAF KACY 072320Z 0800/0824 17007KT P6SM FEW060 FM080900 17005KT P6SM BKN040 FM081100 17006KT P6SM BKN030 FM081400 16007KT P6SM BKN040 FM081700 16009KT P6SM SCT050

All Charts
General
Chart Name Download
AIRPORT DIAGRAM
TAKEOFF MINIMUMS
ALTERNATE MINIMUMS
RADAR MINIMUMS
HOT SPOT
LAHSO

Departures
Chart Name Download
ATLANTIC CITY TWO

Approaches
Chart Name Download
HI-ILS OR LOC RWY 13
ILS OR LOC RWY 13
ILS OR LOC/DME RWY 31
RNAV (RNP) Z RWY 13
RNAV (RNP) Z RWY 31
RNAV (GPS) RWY 04
RNAV (GPS) RWY 22
RNAV (GPS) Y RWY 13
RNAV (GPS) Y RWY 31
VOR/DME RWY 22
HI-VOR/DME OR TACAN RWY 31
VOR RWY 04
VOR RWY 13
VOR RWY 31
COPTER ILS OR LOC/DME RWY 13


Inbound Traffic (Arrivals)

No inbound traffic.


Outbound Traffic (Departures)

No outbound traffic.